Time;durP1;ratioP1;P1;durP2;ratioP2;P2;SDS_P1;SDS_P2;PMS_P1;PMS_P2;Temp;Humidity;BMP_temperature;BMP_pressure;BME280_temperature;BME280_humidity;BME280_pressure;Samples;Min_cycle;Max_cycle;Signal;HPM_P1;HPM_P2
2022/07/16 00:02:51;;;;;;;5.45;2.70;;;24.00;92.90;;;;;;5068003;28;20028;-50
2022/07/16 00:05:17;;;;;;;8.73;2.90;;;24.00;93.10;;;;;;5069080;28;20032;-49
2022/07/16 00:07:43;;;;;;;7.60;3.53;;;24.00;92.90;;;;;;5029296;28;20072;-50
2022/07/16 00:10:09;;;;;;;6.95;2.92;;;24.00;92.90;;;;;;5064576;28;20040;-50
2022/07/16 00:12:35;;;;;;;6.50;3.00;;;24.00;93.40;;;;;;5065720;28;20037;-50
2022/07/16 00:15:03;;;;;;;5.68;2.58;;;24.00;93.40;;;;;;5066173;28;20388;-50
2022/07/16 00:17:29;;;;;;;4.78;2.95;;;24.00;93.40;;;;;;5065866;28;20040;-50
2022/07/16 00:19:55;;;;;;;6.55;2.72;;;24.00;93.50;;;;;;5064261;28;20029;-49
2022/07/16 00:22:20;;;;;;;4.53;2.63;;;24.00;93.60;;;;;;5054904;28;20029;-51
2022/07/16 00:24:46;;;;;;;5.57;2.67;;;24.00;93.60;;;;;;5064236;28;20063;-50
2022/07/16 00:27:12;;;;;;;6.22;2.83;;;23.90;93.70;;;;;;5057329;28;20433;-50
2022/07/16 00:29:38;;;;;;;5.13;2.88;;;;;;;;;;5064985;28;20025;-50
2022/07/16 00:32:04;;;;;;;6.53;2.92;;;23.60;91.40;;;;;;5064533;28;20028;-50
2022/07/16 00:34:30;;;;;;;5.10;2.60;;;23.40;92.10;;;;;;5057244;28;20056;-50
2022/07/16 00:36:56;;;;;;;9.98;3.10;;;23.50;92.40;;;;;;5008640;28;20121;-50
2022/07/16 00:39:22;;;;;;;6.30;3.13;;;23.50;92.40;;;;;;5029170;28;20081;-50
2022/07/16 00:41:48;;;;;;;7.25;3.00;;;;;;;;;;5025898;28;20037;-49
2022/07/16 00:44:16;;;;;;;6.68;3.08;;;23.50;92.30;;;;;;5025887;28;20052;-50
2022/07/16 00:46:44;;;;;;;9.60;4.32;;;23.40;93.10;;;;;;5014316;28;20049;-50
2022/07/16 00:49:10;;;;;;;7.30;3.22;;;23.40;92.70;;;;;;5021487;28;20041;-50
2022/07/16 00:51:40;;;;;;;5.40;2.85;;;23.40;92.60;;;;;;5022081;28;20590;-50
2022/07/16 00:54:06;;;;;;;6.25;3.00;;;23.40;93.00;;;;;;5026036;28;20381;-50
2022/07/16 00:56:32;;;;;;;10.48;3.53;;;23.40;92.50;;;;;;5018740;28;20049;-49
2022/07/16 00:58:58;;;;;;;5.22;2.80;;;23.40;91.90;;;;;;5036564;28;20409;-50
2022/07/16 01:01:24;;;;;;;8.45;3.10;;;23.40;91.40;;;;;;5018281;28;20030;-49
2022/07/16 01:03:50;;;;;;;9.20;2.90;;;23.40;91.50;;;;;;5026072;28;20101;-50
2022/07/16 01:06:17;;;;;;;7.85;3.08;;;23.40;91.40;;;;;;5020311;28;20033;-50
2022/07/16 01:08:46;;;;;;;4.57;2.90;;;23.30;91.60;;;;;;5023609;28;20026;-50
2022/07/16 01:11:13;;;;;;;6.88;3.40;;;;;;;;;;5019838;28;20389;-50
2022/07/16 01:13:41;;;;;;;9.13;3.10;;;23.30;99.90;;;;;;5017291;28;20493;-50
2022/07/16 01:16:08;;;;;;;6.10;3.50;;;;;;;;;;5022267;28;20104;-49
2022/07/16 01:18:35;;;;;;;6.63;3.08;;;;;;;;;;5021401;28;20044;-50
2022/07/16 01:21:01;;;;;;;6.53;3.13;;;23.20;92.20;;;;;;5023160;28;20116;-50
2022/07/16 01:23:27;;;;;;;7.13;3.20;;;23.00;92.40;;;;;;5023487;28;20106;-50
2022/07/16 01:25:53;;;;;;;6.72;3.20;;;23.00;92.70;;;;;;5025641;28;20457;-50
2022/07/16 01:28:20;;;;;;;8.93;3.28;;;23.00;93.10;;;;;;5025215;28;20034;-50
2022/07/16 01:30:46;;;;;;;5.25;2.85;;;;;;;;;;5023075;28;20037;-49
2022/07/16 01:33:28;;;;;;;6.07;3.10;;;22.90;94.00;;;;;;5016506;28;20025;-50
2022/07/16 01:36:01;;;;;;;;;;;22.60;93.40;;;;;;5023856;28;20036;-50
2022/07/16 01:38:27;;;;;;;5.82;3.55;;;22.50;93.60;;;;;;5028048;28;19909;-52
2022/07/16 01:40:53;;;;;;;5.88;3.63;;;22.40;93.90;;;;;;5039783;28;20102;-50
2022/07/16 01:43:21;;;;;;;8.98;3.20;;;;;;;;;;5064822;28;20449;-50
2022/07/16 01:45:47;;;;;;;7.65;3.65;;;;;;;;;;5063110;28;20036;-50
2022/07/16 01:48:14;;;;;;;12.27;4.07;;;22.50;99.90;;;;;;5057477;28;20032;-50
2022/07/16 01:50:42;;;;;;;6.07;2.90;;;22.50;99.30;;;;;;5064619;28;20381;-51
2022/07/16 01:53:08;;;;;;;5.70;3.65;;;;;;;;;;5062059;28;20079;-49
2022/07/16 01:55:34;;;;;;;5.50;3.33;;;;;;;;;;5064290;28;20439;-50
2022/07/16 01:58:02;;;;;;;11.70;3.78;;;22.50;99.90;;;;;;5004176;28;20037;-50
2022/07/16 02:00:28;;;;;;;8.57;4.22;;;;;;;;;;5062615;28;20029;-51
2022/07/16 02:02:53;;;;;;;6.97;3.13;;;22.30;94.00;;;;;;5063633;28;20040;-51
2022/07/16 02:05:19;;;;;;;6.78;3.05;;;22.30;94.10;;;;;;5062830;28;20021;-50
2022/07/16 02:07:45;;;;;;;10.32;3.67;;;22.30;94.60;;;;;;5054967;28;20028;-50
2022/07/16 02:10:11;;;;;;;8.02;3.65;;;22.40;96.40;;;;;;5061029;28;20480;-50
2022/07/16 02:12:37;;;;;;;5.63;3.38;;;;;;;;;;5045752;28;20040;-50
2022/07/16 02:15:05;;;;;;;5.43;3.72;;;22.30;99.90;;;;;;5064075;28;20178;-50
2022/07/16 02:17:31;;;;;;;14.55;3.90;;;22.30;98.60;;;;;;5001382;28;20098;-50
2022/07/16 02:19:56;;;;;;;6.75;4.43;;;22.30;99.80;;;;;;5028773;28;20044;-50
2022/07/16 02:22:22;;;;;;;10.68;4.13;;;22.30;99.90;;;;;;5063829;28;20028;-50
2022/07/16 02:24:48;;;;;;;8.80;4.05;;;22.30;99.90;;;;;;5062358;28;20060;-50
2022/07/16 02:27:14;;;;;;;7.68;4.07;;;22.20;99.90;;;;;;5026565;28;20365;-50
2022/07/16 02:29:39;;;;;;;6.60;4.18;;;22.10;98.80;;;;;;5057470;28;20023;-50
2022/07/16 02:32:05;;;;;;;7.43;3.80;;;22.10;99.90;;;;;;5062483;28;20136;-50
2022/07/16 02:34:31;;;;;;;8.73;4.28;;;22.10;99.90;;;;;;5063402;28;20041;-50
2022/07/16 02:36:57;;;;;;;9.23;4.05;;;;;;;;;;5021755;28;20409;-50
2022/07/16 02:39:23;;;;;;;8.38;4.72;;;;;;;;;;5058972;28;20060;-50
2022/07/16 02:41:49;;;;;;;9.07;4.35;;;;;;;;;;5063718;28;20139;-49
2022/07/16 02:44:15;;;;;;;10.25;4.65;;;21.90;99.90;;;;;;5063466;28;20051;-50
2022/07/16 02:46:41;;;;;;;5.35;3.92;;;21.90;99.90;;;;;;5063342;28;20472;-49
2022/07/16 02:49:06;;;;;;;4.95;3.50;;;21.70;96.10;;;;;;5061455;28;20024;-50
2022/07/16 02:51:32;;;;;;;6.65;3.83;;;21.60;96.40;;;;;;5055274;28;20036;-51
2022/07/16 02:53:58;;;;;;;7.70;4.07;;;21.60;98.80;;;;;;5027701;28;20052;-49
2022/07/16 02:56:24;;;;;;;7.57;4.18;;;21.40;99.90;;;;;;5048307;28;20116;-50
2022/07/16 02:58:49;;;;;;;6.30;4.07;;;21.40;97.40;;;;;;5061007;28;20056;-50
2022/07/16 03:01:15;;;;;;;7.18;4.28;;;21.40;97.70;;;;;;5055411;28;20120;-51
2022/07/16 03:03:41;;;;;;;9.73;3.53;;;21.40;98.00;;;;;;5060959;28;20032;-49
2022/07/16 03:06:07;;;;;;;7.15;3.88;;;21.40;98.40;;;;;;5062534;28;20131;-50
2022/07/16 03:08:33;;;;;;;6.45;3.47;;;21.20;98.80;;;;;;5025297;28;20048;-50
2022/07/16 03:10:59;;;;;;;6.63;3.70;;;21.20;99.40;;;;;;5063333;28;20047;-50
2022/07/16 03:13:25;;;;;;;8.30;4.57;;;21.20;99.40;;;;;;5063145;28;20028;-50
2022/07/16 03:15:51;;;;;;;10.70;4.40;;;21.10;99.90;;;;;;5060302;28;20463;-50
2022/07/16 03:18:17;;;;;;;6.53;3.90;;;21.00;99.90;;;;;;5061257;28;20662;-50
2022/07/16 03:20:42;;;;;;;7.30;3.78;;;20.90;99.90;;;;;;5057140;28;20044;-50
2022/07/16 03:23:08;;;;;;;7.75;3.80;;;20.80;99.90;;;;;;4956522;28;20405;-50
2022/07/16 03:25:34;;;;;;;9.38;3.45;;;20.80;99.90;;;;;;5057814;28;20341;-50
2022/07/16 03:28:00;;;;;;;8.73;3.78;;;20.80;99.90;;;;;;5005579;28;20048;-50
2022/07/16 03:30:25;;;;;;;6.90;4.38;;;20.70;99.90;;;;;;5039099;28;20069;-50
2022/07/16 03:32:51;;;;;;;5.45;3.45;;;20.60;99.90;;;;;;5040781;28;20122;-50
2022/07/16 03:35:17;;;;;;;8.48;5.25;;;20.50;99.90;;;;;;4994365;28;20029;-50
2022/07/16 03:40:28;;;;;;;8.50;4.10;;;20.40;99.90;;;;;;5042351;28;20559;-49
2022/07/16 03:42:54;;;;;;;5.55;4.15;;;20.50;99.90;;;;;;5025877;28;20152;-50
2022/07/16 03:45:20;;;;;;;5.18;4.05;;;20.30;99.90;;;;;;5041285;28;20459;-50
2022/07/16 03:47:46;;;;;;;11.10;4.15;;;20.30;99.90;;;;;;5043870;28;20128;-50
2022/07/16 03:50:12;;;;;;;6.95;3.83;;;20.30;99.90;;;;;;5042626;28;20021;-51
2022/07/16 03:52:38;;;;;;;8.43;3.97;;;20.20;99.90;;;;;;5043942;28;20056;-50
2022/07/16 03:55:04;;;;;;;6.78;4.65;;;20.20;99.90;;;;;;5027648;28;20033;-50
2022/07/16 03:57:30;;;;;;;6.13;4.25;;;20.20;99.90;;;;;;5026787;28;20036;-50
2022/07/16 03:59:56;;;;;;;9.88;4.50;;;20.20;99.90;;;;;;5062572;28;20041;-50
2022/07/16 04:02:21;;;;;;;6.65;4.47;;;20.20;99.90;;;;;;5066093;28;20036;-51
2022/07/16 04:04:47;;;;;;;10.25;4.90;;;20.30;99.90;;;;;;5067032;28;20551;-50
2022/07/16 04:07:13;;;;;;;12.45;4.63;;;20.40;99.90;;;;;;5022364;28;20048;-50
2022/07/16 04:09:39;;;;;;;8.05;4.10;;;20.40;99.90;;;;;;5064494;28;20401;-50
2022/07/16 04:12:05;;;;;;;11.43;4.82;;;20.40;99.90;;;;;;5066152;28;20082;-50
2022/07/16 04:14:31;;;;;;;9.57;4.30;;;20.40;99.90;;;;;;5052645;28;20029;-50
2022/07/16 04:16:56;;;;;;;9.10;4.63;;;20.40;99.90;;;;;;5066536;28;20031;-50
2022/07/16 04:19:22;;;;;;;11.25;4.30;;;20.40;99.90;;;;;;5064844;28;20171;-50
2022/07/16 04:21:48;;;;;;;8.00;4.47;;;;;;;;;;5056428;28;20032;-50
2022/07/16 04:24:14;;;;;;;10.85;4.70;;;20.50;99.90;;;;;;5031032;28;20040;-50
2022/07/16 04:26:40;;;;;;;9.30;4.80;;;20.50;99.90;;;;;;5064788;28;20075;-50
2022/07/16 04:29:06;;;;;;;9.70;4.60;;;20.60;99.90;;;;;;5064101;28;20025;-50
2022/07/16 04:31:31;;;;;;;12.18;4.63;;;20.60;99.90;;;;;;5028779;28;20036;-49
2022/07/16 04:33:57;;;;;;;10.57;5.15;;;20.70;99.90;;;;;;5064048;28;20089;-50
2022/07/16 04:36:23;;;;;;;10.40;4.40;;;20.80;99.90;;;;;;5062666;28;20071;-50
2022/07/16 04:38:48;;;;;;;8.70;4.35;;;20.70;99.90;;;;;;5063440;28;20572;-49
2022/07/16 04:41:14;;;;;;;6.82;4.63;;;20.90;99.90;;;;;;5063073;28;20043;-50
2022/07/16 04:43:40;;;;;;;6.47;4.47;;;20.90;99.90;;;;;;5063934;28;20040;-50
2022/07/16 04:46:06;;;;;;;7.20;4.20;;;21.00;99.90;;;;;;5064276;28;20492;-49
2022/07/16 04:48:31;;;;;;;12.32;4.72;;;21.10;99.90;;;;;;5064826;28;20024;-50
2022/07/16 04:50:57;;;;;;;8.32;5.18;;;21.10;99.90;;;;;;5028035;28;20033;-50
2022/07/16 04:53:23;;;;;;;8.60;4.45;;;21.30;99.90;;;;;;5068099;28;20069;-51
2022/07/16 04:55:49;;;;;;;9.95;4.82;;;21.30;99.90;;;;;;5047651;28;20033;-49
2022/07/16 04:58:15;;;;;;;7.32;4.60;;;21.40;99.90;;;;;;5017064;28;20068;-49
2022/07/16 05:00:40;;;;;;;11.55;4.97;;;21.50;99.90;;;;;;5049899;28;20534;-49
2022/07/16 05:03:07;;;;;;;8.43;4.45;;;21.50;99.90;;;;;;5051235;28;20077;-49
2022/07/16 05:05:37;;;;;;;19.92;6.72;;;21.60;99.90;;;;;;5017736;28;20408;-50
2022/07/16 05:08:06;;;;;;;16.42;5.15;;;21.60;99.90;;;;;;5003414;28;20033;-50
2022/07/16 05:10:32;;;;;;;10.95;4.75;;;21.70;99.90;;;;;;5051167;28;20060;-50
2022/07/16 05:12:59;;;;;;;12.60;5.22;;;21.70;99.90;;;;;;5051625;28;20059;-49
2022/07/16 05:15:26;;;;;;;12.00;5.25;;;21.70;99.90;;;;;;5051059;28;20028;-50
2022/07/16 05:17:52;;;;;;;8.77;4.95;;;21.70;99.90;;;;;;5051194;28;20029;-50
2022/07/16 05:20:18;;;;;;;9.63;5.00;;;21.80;99.90;;;;;;5016825;28;20132;-50
2022/07/16 05:22:44;;;;;;;9.07;4.20;;;21.70;99.90;;;;;;5049239;28;20479;-50
2022/07/16 05:25:10;;;;;;;10.00;4.97;;;21.60;99.90;;;;;;5001235;28;20056;-49
2022/07/16 05:27:37;;;;;;;13.38;5.45;;;21.60;99.90;;;;;;5001214;28;20044;-50
2022/07/16 05:30:04;;;;;;;14.75;5.22;;;21.70;99.90;;;;;;5050412;28;20055;-50
2022/07/16 05:32:30;;;;;;;7.30;4.75;;;21.70;99.90;;;;;;5019561;28;20086;-50
2022/07/16 05:34:56;;;;;;;8.98;4.80;;;21.80;99.90;;;;;;5056118;28;20103;-50
2022/07/16 05:37:21;;;;;;;11.57;5.05;;;21.70;99.90;;;;;;5062822;28;20036;-50
2022/07/16 05:39:47;;;;;;;9.70;4.82;;;21.70;99.90;;;;;;5048064;28;20488;-50
2022/07/16 05:42:13;;;;;;;8.52;5.53;;;21.80;99.90;;;;;;4969572;28;20034;-50
2022/07/16 05:44:39;;;;;;;12.05;5.05;;;21.90;99.90;;;;;;4965638;28;20038;-50
2022/07/16 05:47:05;;;;;;;11.43;6.28;;;21.90;99.90;;;;;;4983550;28;20041;-50
2022/07/16 05:49:31;;;;;;;12.43;6.03;;;22.00;99.90;;;;;;4994283;28;20026;-50
2022/07/16 05:51:57;;;;;;;8.18;4.63;;;22.00;99.90;;;;;;4981729;28;20034;-49
2022/07/16 05:54:23;;;;;;;9.80;5.60;;;22.00;99.90;;;;;;5007827;28;20494;-50
2022/07/16 05:56:49;;;;;;;15.38;5.45;;;22.00;99.90;;;;;;4972439;28;20037;-50
2022/07/16 05:59:15;;;;;;;10.73;6.20;;;22.10;99.90;;;;;;4997006;28;20032;-50
2022/07/16 06:01:41;;;;;;;9.38;5.40;;;22.20;99.90;;;;;;5005066;28;20029;-50
2022/07/16 06:04:07;;;;;;;10.52;5.50;;;22.40;99.90;;;;;;5001730;28;20034;-50
2022/07/16 06:06:33;;;;;;;8.48;4.82;;;22.50;99.90;;;;;;4993971;28;20467;-50
2022/07/16 06:08:58;;;;;;;8.63;5.35;;;22.60;99.90;;;;;;4984630;28;20073;-50
2022/07/16 06:11:24;;;;;;;9.88;5.50;;;22.80;99.90;;;;;;4978220;28;20429;-49
2022/07/16 06:13:50;;;;;;;8.15;4.93;;;23.20;99.90;;;;;;4976978;28;20050;-50
2022/07/16 06:16:16;;;;;;;10.77;5.63;;;22.90;99.90;;;;;;4979713;28;20046;-50
2022/07/16 06:18:42;;;;;;;12.00;5.25;;;23.10;99.90;;;;;;4989949;28;20042;-50
2022/07/16 06:21:08;;;;;;;11.73;5.32;;;23.30;99.90;;;;;;5055224;28;20484;-50
2022/07/16 06:23:34;;;;;;;12.32;5.85;;;23.40;99.90;;;;;;5063897;28;20047;-50
2022/07/16 06:26:00;;;;;;;12.52;5.43;;;23.40;99.90;;;;;;5021941;28;20036;-50
2022/07/16 06:28:26;;;;;;;12.20;5.72;;;23.50;99.90;;;;;;5028259;28;20063;-50
2022/07/16 06:30:52;;;;;;;10.55;5.45;;;;;;;;;;5058620;28;20998;-50
2022/07/16 06:33:18;;;;;;;7.75;5.22;;;;;;;;;;5072310;28;20028;-49
2022/07/16 06:35:44;;;;;;;11.75;5.40;;;24.10;99.90;;;;;;5069895;28;20048;-50
2022/07/16 06:38:10;;;;;;;13.25;5.47;;;;;;;;;;5036454;28;20498;-50
2022/07/16 06:40:35;;;;;;;10.88;4.93;;;24.20;99.90;;;;;;5036163;28;20135;-48
2022/07/16 06:43:01;;;;;;;12.63;5.10;;;24.30;99.90;;;;;;5011120;28;20119;-47
2022/07/16 06:45:27;;;;;;;13.25;5.10;;;24.40;99.90;;;;;;5003521;28;20200;-47
2022/07/16 06:47:52;;;;;;;12.35;5.22;;;24.50;99.90;;;;;;5070154;28;20029;-45
2022/07/16 06:50:19;;;;;;;6.75;4.18;;;;;;;;;;5049514;28;20040;-51
2022/07/16 06:52:45;;;;;;;8.50;3.78;;;;;;;;;;5061303;28;20032;-50
2022/07/16 06:55:11;;;;;;;3.85;2.90;;;;;;;;;;5062611;28;20110;-51
2022/07/16 06:57:37;;;;;;;7.57;3.60;;;25.30;99.90;;;;;;5071302;28;20070;-51
2022/07/16 07:00:03;;;;;;;7.43;3.88;;;25.50;99.90;;;;;;5017065;28;20052;-51
2022/07/16 07:02:29;;;;;;;6.45;3.80;;;;;;;;;;5012839;28;20036;-52
2022/07/16 07:04:55;;;;;;;7.45;2.92;;;25.50;99.90;;;;;;5026376;28;20508;-51
2022/07/16 07:07:21;;;;;;;7.30;2.60;;;25.50;99.90;;;;;;5059885;28;20024;-51
2022/07/16 07:09:46;;;;;;;4.85;3.08;;;25.50;99.90;;;;;;5025258;28;20044;-52
2022/07/16 07:12:12;;;;;;;5.05;2.85;;;;;;;;;;5034621;28;20040;-51
2022/07/16 07:14:38;;;;;;;8.35;3.67;;;;;;;;;;5067033;28;20034;-52
2022/07/16 07:17:05;;;;;;;6.35;3.20;;;;;;;;;;5030252;28;20037;-50
2022/07/16 07:19:30;;;;;;;5.20;3.00;;;26.50;99.90;;;;;;5061437;28;20045;-51
2022/07/16 07:21:56;;;;;;;4.07;3.05;;;26.20;99.90;;;;;;5007854;28;20090;-49
2022/07/16 07:24:22;;;;;;;5.93;2.95;;;;;;;;;;5025570;28;20132;-51
2022/07/16 07:26:48;;;;;;;6.43;2.60;;;;;;;;;;5066428;28;20070;-50
2022/07/16 07:29:14;;;;;;;4.32;2.92;;;;;;;;;;5061228;28;20039;-51
2022/07/16 07:31:40;;;;;;;3.67;2.80;;;27.40;99.90;;;;;;5056845;28;20029;-50
2022/07/16 07:34:06;;;;;;;4.80;2.72;;;26.90;99.90;;;;;;5061142;28;20414;-48
2022/07/16 07:36:32;;;;;;;4.70;2.90;;;26.50;99.90;;;;;;5063148;28;20507;-49
2022/07/16 07:38:57;;;;;;;3.40;2.47;;;26.70;99.90;;;;;;5060496;28;20049;-47
2022/07/16 07:41:23;;;;;;;4.95;2.65;;;27.00;99.90;;;;;;5025851;28;20091;-48
2022/07/16 07:43:49;;;;;;;3.90;2.97;;;27.40;99.90;;;;;;5055664;28;20025;-49
2022/07/16 07:46:15;;;;;;;6.00;2.78;;;;;;;;;;5026461;28;20044;-48
2022/07/16 07:48:41;;;;;;;4.30;2.63;;;;;;;;;;5060028;28;20102;-48
2022/07/16 07:51:07;;;;;;;7.38;2.90;;;;;;;;;;5060814;28;20040;-49
2022/07/16 07:53:34;;;;;;;4.25;2.70;;;;;;;;;;5057981;28;20041;-48
2022/07/16 07:56:00;;;;;;;3.38;2.63;;;;;;;;;;5059453;28;20040;-49
2022/07/16 07:58:26;;;;;;;4.93;2.97;;;;;;;;;;5061249;28;20377;-49
2022/07/16 08:00:54;;;;;;;6.05;2.78;;;;;;;;;;5064635;28;20047;-49
2022/07/16 08:03:21;;;;;;;5.22;2.80;;;;;;;;;;5040562;28;20508;-48
2022/07/16 08:05:47;;;;;;;3.55;2.50;;;;;;;;;;5063109;28;20709;-49
2022/07/16 08:08:13;;;;;;;6.80;2.60;;;;;;;;;;5068872;28;20051;-47
2022/07/16 08:10:39;;;;;;;4.68;2.45;;;;;;;;;;5069886;28;20028;-49
2022/07/16 08:13:05;;;;;;;3.40;2.25;;;;;;;;;;5062740;28;20031;-54
2022/07/16 08:15:31;;;;;;;4.20;2.70;;;;;;;;;;5070383;28;20020;-54
2022/07/16 08:17:58;;;;;;;3.70;2.13;;;;;;;;;;5068733;28;20020;-54
2022/07/16 08:20:24;;;;;;;3.15;1.92;;;;;;;;;;5068854;28;20041;-53
2022/07/16 08:22:50;;;;;;;3.42;2.08;;;;;;;;;;5035714;28;20060;-52
2022/07/16 08:28:01;;;;;;;4.90;2.47;;;29.50;97.20;;;;;;5066367;28;20131;-50
2022/07/16 08:30:26;;;;;;;2.80;2.40;;;29.20;97.10;;;;;;5037459;28;20107;-55
2022/07/16 08:32:52;;;;;;;3.25;2.30;;;28.90;96.70;;;;;;4959259;28;20045;-54
2022/07/16 08:35:18;;;;;;;3.92;2.42;;;28.90;96.60;;;;;;5059962;28;20040;-47
2022/07/16 08:37:45;;;;;;;2.97;2.30;;;29.10;96.70;;;;;;5071205;28;20120;-48
2022/07/16 08:40:18;;;;;;;4.47;2.20;;;28.90;96.60;;;;;;5073913;28;20041;-49
2022/07/16 08:42:44;;;;;;;3.20;2.35;;;;;;;;;;5067243;28;20031;-50
2022/07/16 08:45:11;;;;;;;3.42;2.35;;;;;;;;;;5070793;28;20070;-50
2022/07/16 08:47:38;;;;;;;3.50;2.22;;;;;;;;;;5037049;28;20384;-54
2022/07/16 08:50:08;;;;;;;2.78;2.10;;;;;;;;;;5064531;28;20048;-49
2022/07/16 08:52:37;;;;;;;4.10;2.10;;;;;;;;;;5044116;28;20091;-51
2022/07/16 08:55:03;;;;;;;3.70;2.13;;;;;;;;;;5066363;28;20480;-52
2022/07/16 08:57:31;;;;;;;3.90;2.17;;;28.60;96.90;;;;;;5006906;28;20131;-53
2022/07/16 08:59:56;;;;;;;3.75;2.80;;;28.80;96.90;;;;;;5054305;28;20104;-50
2022/07/16 09:02:23;;;;;;;2.78;2.15;;;;;;;;;;5065839;28;20115;-50
2022/07/16 09:04:49;;;;;;;3.40;2.50;;;;;;;;;;5069493;28;20067;-49
2022/07/16 09:07:18;;;;;;;2.78;2.17;;;29.70;99.90;;;;;;5061044;28;20073;-51
2022/07/16 09:09:45;;;;;;;2.63;1.80;;;;;;;;;;5063297;28;20056;-51
2022/07/16 09:12:12;;;;;;;4.53;2.40;;;;;;;;;;5024952;28;20048;-52
2022/07/16 09:14:38;;;;;;;3.05;2.08;;;;;;;;;;5065232;28;20050;-49
2022/07/16 09:17:04;;;;;;;4.28;1.92;;;30.60;99.90;;;;;;5065251;28;20029;-51
2022/07/16 09:19:30;;;;;;;2.60;1.85;;;30.70;93.80;;;;;;5056553;28;20027;-52
2022/07/16 09:22:05;;;;;;;3.75;2.30;;;30.30;93.30;;;;;;5062765;28;20118;-52
2022/07/16 09:24:42;;;;;;;2.90;2.00;;;29.90;93.50;;;;;;5065267;28;20024;-49
2022/07/16 09:27:14;;;;;;;1.90;1.70;;;30.10;94.00;;;;;;5065028;28;20115;-49
2022/07/16 09:29:58;;;;;;;5.10;2.42;;;30.40;93.50;;;;;;5038420;28;20460;-49
2022/07/16 09:32:39;;;;;;;3.78;2.22;;;;;;;;;;5027385;28;20400;-51
2022/07/16 09:35:13;;;;;;;4.28;2.10;;;31.50;99.90;;;;;;5053401;28;20029;-52
2022/07/16 09:37:54;;;;;;;3.58;2.33;;;32.30;93.50;;;;;;5064207;28;20040;-53
2022/07/16 09:40:41;;;;;;;3.28;1.70;;;32.10;92.90;;;;;;5038503;28;20136;-50
2022/07/16 09:43:13;;;;;;;4.10;2.20;;;32.10;92.30;;;;;;5062061;28;20164;-51
2022/07/16 09:45:44;;;;;;;2.92;2.03;;;31.90;92.30;;;;;;5062372;28;20068;-52
2022/07/16 09:48:28;;;;;;;6.05;2.03;;;31.70;92.10;;;;;;5062662;28;20396;-52
2022/07/16 09:50:56;;;;;;;3.42;1.95;;;30.80;92.30;;;;;;5061849;28;20479;-49
2022/07/16 09:53:25;;;;;;;3.10;2.03;;;30.50;92.20;;;;;;5057835;28;20060;-53
2022/07/16 09:56:05;;;;;;;3.38;1.95;;;30.70;92.30;;;;;;5064844;28;20043;-49
2022/07/16 09:58:32;;;;;;;4.82;2.00;;;31.00;92.80;;;;;;5064455;28;20649;-49
2022/07/16 10:01:00;;;;;;;2.38;1.70;;;30.90;92.40;;;;;;5020989;28;20424;-51
2022/07/16 10:03:27;;;;;;;2.60;1.67;;;30.90;92.40;;;;;;5058168;28;20098;-51
2022/07/16 10:05:53;;;;;;;3.65;1.75;;;31.10;91.90;;;;;;5007566;28;20103;-52
2022/07/16 10:08:19;;;;;;;2.75;1.67;;;30.70;91.80;;;;;;5022638;28;20049;-49
2022/07/16 10:10:46;;;;;;;1.67;1.20;;;31.40;93.00;;;;;;5054137;28;20083;-50
2022/07/16 10:13:14;;;;;;;2.20;1.60;;;31.60;91.50;;;;;;5043564;28;20380;-52
2022/07/16 10:15:41;;;;;;;2.80;1.75;;;31.50;91.50;;;;;;5063202;28;20546;-52
2022/07/16 10:18:37;;;;;;;3.67;1.98;;;31.80;91.40;;;;;;5064469;28;20375;-49
2022/07/16 10:21:10;;;;;;;2.10;1.70;;;31.40;91.30;;;;;;5055168;28;20111;-53
2022/07/16 10:23:38;;;;;;;1.90;1.60;;;31.70;91.20;;;;;;5060835;28;20036;-56
2022/07/16 10:26:08;;;;;;;3.47;2.28;;;31.60;91.10;;;;;;5069196;28;20035;-55
2022/07/16 10:28:43;;;;;;;2.58;1.77;;;;;;;;;;5051112;28;20388;-59
2022/07/16 10:31:35;;;;;;;1.92;1.67;;;32.10;90.70;;;;;;5065569;28;20105;-47
2022/07/16 10:34:16;;;;;;;3.60;2.00;;;32.80;99.90;;;;;;5081983;28;20036;-48
2022/07/16 10:36:53;;;;;;;2.67;1.60;;;32.70;99.80;;;;;;5063899;28;20066;-55
2022/07/16 10:39:20;;;;;;;2.67;1.65;;;32.20;99.90;;;;;;5054747;28;20132;-47
2022/07/16 10:41:48;;;;;;;2.22;1.80;;;32.70;99.90;;;;;;5066912;28;20403;-51
2022/07/16 10:44:15;;;;;;;2.78;2.08;;;32.60;99.90;;;;;;5069016;28;20065;-51
2022/07/16 10:46:58;;;;;;;2.75;2.10;;;;;;;;;;5002962;28;20096;-54
2022/07/16 10:49:25;;;;;;;2.33;1.90;;;;;;;;;;5007367;28;20025;-51
2022/07/16 10:51:57;;;;;;;2.53;2.10;;;;;;;;;;5008068;28;20092;-55
2022/07/16 10:54:26;;;;;;;4.28;2.30;;;;;;;;;;5002172;28;20042;-53
2022/07/16 10:56:53;;;;;;;3.50;2.03;;;;;;;;;;4997231;28;20069;-54
2022/07/16 10:59:20;;;;;;;2.58;2.00;;;;;;;;;;5002103;28;20033;-53
2022/07/16 11:01:48;;;;;;;2.35;2.03;;;34.30;99.90;;;;;;5006788;28;20772;-53
2022/07/16 11:04:15;;;;;;;2.67;2.33;;;34.50;89.70;;;;;;4976806;28;20548;-56
2022/07/16 11:06:48;;;;;;;3.15;1.98;;;34.50;87.20;;;;;;5004043;28;20170;-56
2022/07/16 11:09:15;;;;;;;4.40;1.73;;;;;;;;;;5002380;28;20042;-50
2022/07/16 11:11:42;;;;;;;3.50;2.08;;;;;;;;;;5003843;28;20112;-50
2022/07/16 11:14:09;;;;;;;2.60;2.22;;;34.20;92.70;;;;;;4999307;28;20549;-50
2022/07/16 11:16:35;;;;;;;4.20;1.90;;;33.50;87.30;;;;;;5000597;28;20520;-54
2022/07/16 11:19:03;;;;;;;4.32;2.28;;;33.30;87.40;;;;;;5063096;28;20031;-53
2022/07/16 11:21:29;;;;;;;2.33;1.80;;;33.50;88.10;;;;;;5041004;28;20399;-53
2022/07/16 11:24:00;;;;;;;2.60;2.25;;;33.70;88.30;;;;;;5070222;28;20024;-52
2022/07/16 11:26:29;;;;;;;2.95;2.35;;;33.50;87.30;;;;;;5028684;28;20414;-51
2022/07/16 11:29:01;;;;;;;3.47;2.47;;;33.40;87.40;;;;;;5062826;28;20025;-52
2022/07/16 11:31:28;;;;;;;3.45;2.30;;;33.30;86.80;;;;;;5026541;28;20489;-54
2022/07/16 11:33:58;;;;;;;2.53;1.85;;;33.80;87.20;;;;;;5054330;28;20035;-53
2022/07/16 11:36:28;;;;;;;3.45;1.85;;;33.50;85.10;;;;;;5067069;28;20484;-49
2022/07/16 11:51:38;;;;;;;3.45;1.50;;;;;;;;;;5160419;27;20415;-53
2022/07/16 11:54:04;;;;;;;1.88;1.40;;;34.60;99.90;;;;;;5142552;27;20031;-55
2022/07/16 11:56:35;;;;;;;2.83;2.03;;;34.20;84.90;;;;;;5120616;27;20465;-54
2022/07/16 11:59:16;;;;;;;3.70;1.55;;;33.80;85.80;;;;;;5140721;27;20036;-56
2022/07/16 12:01:41;;;;;;;3.27;1.50;;;34.60;90.90;;;;;;5138000;27;20063;-52
2022/07/16 12:04:07;;;;;;;4.65;1.70;;;34.30;88.60;;;;;;5140244;27;20315;-52
2022/07/16 12:06:34;;;;;;;2.45;1.40;;;34.10;86.60;;;;;;5142304;27;20037;-56
2022/07/16 12:09:00;;;;;;;2.45;1.60;;;33.90;84.50;;;;;;5148383;27;20058;-54
2022/07/16 12:11:34;;;;;;;2.88;1.75;;;33.80;83.90;;;;;;5147619;27;20036;-53
2022/07/16 12:14:01;;;;;;;3.10;1.70;;;33.60;84.30;;;;;;5141070;27;20042;-55
2022/07/16 12:16:28;;;;;;;2.40;1.67;;;33.80;84.20;;;;;;5143329;27;20043;-54
2022/07/16 12:19:11;;;;;;;2.20;1.58;;;34.80;86.50;;;;;;5073705;28;20040;-53
2022/07/16 12:21:39;;;;;;;3.50;1.52;;;;;;;;;;5073732;28;20024;-53
2022/07/16 12:24:05;;;;;;;2.97;1.60;;;;;;;;;;5075382;28;20053;-55
2022/07/16 12:26:33;;;;;;;4.38;1.80;;;;;;;;;;5065719;28;20407;-59
2022/07/16 12:29:00;;;;;;;4.32;1.83;;;35.60;96.60;;;;;;5077553;28;20145;-55
2022/07/16 12:31:26;;;;;;;1.80;1.48;;;;;;;;;;5078986;28;20402;-53
2022/07/16 12:33:53;;;;;;;2.97;1.60;;;35.90;97.00;;;;;;5078210;28;20039;-55
2022/07/16 12:36:19;;;;;;;2.95;1.40;;;36.00;92.80;;;;;;5075781;28;20467;-53
2022/07/16 12:38:58;;;;;;;2.75;2.05;;;35.80;92.20;;;;;;5085219;28;20157;-53
2022/07/16 12:41:34;;;;;;;3.75;1.63;;;35.90;92.30;;;;;;5076164;28;20039;-56
2022/07/16 12:44:02;;;;;;;2.67;1.48;;;36.30;91.60;;;;;;5076596;28;20151;-55
2022/07/16 12:46:41;;;;;;;3.70;1.83;;;36.60;91.70;;;;;;5070427;28;20025;-52
2022/07/16 12:49:16;;;;;;;2.33;1.70;;;36.80;94.20;;;;;;5091040;27;20042;-56
2022/07/16 12:51:51;;;;;;;3.75;1.80;;;36.90;81.80;;;;;;5118062;27;20024;-54
2022/07/16 12:54:18;;;;;;;4.03;1.88;;;;;;;;;;5108515;27;20436;-55
2022/07/16 12:59:30;;;;;;;2.10;1.60;;;36.10;79.50;;;;;;5109632;27;20047;-53
2022/07/16 13:01:57;;;;;;;3.67;2.35;;;35.80;79.80;;;;;;5111868;27;20019;-52
2022/07/16 13:04:24;;;;;;;3.83;2.08;;;35.20;80.10;;;;;;5107934;27;20023;-56
2022/07/16 13:06:50;;;;;;;2.08;1.40;;;35.50;81.30;;;;;;5107792;27;20036;-52
2022/07/16 13:09:16;;;;;;;2.08;1.58;;;35.50;81.10;;;;;;5105114;27;20533;-55
2022/07/16 13:11:43;;;;;;;4.13;1.75;;;35.80;80.00;;;;;;5109175;27;20043;-55
2022/07/16 13:14:10;;;;;;;4.28;1.75;;;35.40;80.20;;;;;;5105949;27;20027;-52
2022/07/16 13:16:38;;;;;;;4.13;1.88;;;35.00;81.00;;;;;;5103864;27;20036;-56
2022/07/16 13:19:05;;;;;;;2.47;1.70;;;34.80;80.60;;;;;;5107618;27;20072;-57
2022/07/16 13:21:32;;;;;;;5.07;2.40;;;34.60;80.50;;;;;;5105982;27;20608;-55
2022/07/16 13:23:59;;;;;;;3.13;1.80;;;35.50;81.60;;;;;;5111144;27;20020;-53
2022/07/16 13:26:31;;;;;;;2.22;1.70;;;35.40;80.40;;;;;;5054203;28;20035;-54
2022/07/16 13:28:57;;;;;;;2.17;1.45;;;35.20;80.30;;;;;;5108510;27;20485;-52
2022/07/16 13:31:24;;;;;;;2.30;1.75;;;34.80;80.30;;;;;;5107495;28;20107;-56